sensor_id;sensor_type;location;lat;lon;timestamp;pressure;altitude;pressure_sealevel;temperature;humidity
20710;BME280;10516;51.518;9.864;2023-02-04T00:00:49;99834.81;;;4.14;88.21
20710;BME280;10516;51.518;9.864;2023-02-04T00:03:15;99833.19;;;4.13;87.84
20710;BME280;10516;51.518;9.864;2023-02-04T00:05:41;99846.13;;;4.22;88.24
20710;BME280;10516;51.518;9.864;2023-02-04T00:08:07;99844.56;;;4.13;88.33
20710;BME280;10516;51.518;9.864;2023-02-04T00:10:32;99836.91;;;4.18;88.08
20710;BME280;10516;51.518;9.864;2023-02-04T00:12:57;99853.59;;;4.19;88.14
20710;BME280;10516;51.518;9.864;2023-02-04T00:15:23;99843.00;;;4.04;89.00
20710;BME280;10516;51.518;9.864;2023-02-04T00:17:49;99831.81;;;4.02;88.33
20710;BME280;10516;51.518;9.864;2023-02-04T00:20:14;99820.44;;;4.02;88.17
20710;BME280;10516;51.518;9.864;2023-02-04T00:22:40;99840.47;;;3.96;89.06
20710;BME280;10516;51.518;9.864;2023-02-04T00:25:06;99834.19;;;3.97;89.16
20710;BME280;10516;51.518;9.864;2023-02-04T00:27:31;99840.06;;;3.70;88.42
20710;BME280;10516;51.518;9.864;2023-02-04T00:29:57;99852.41;;;3.77;88.36
20710;BME280;10516;51.518;9.864;2023-02-04T00:32:22;99847.38;;;3.68;88.70
20710;BME280;10516;51.518;9.864;2023-02-04T00:34:48;99862.56;;;3.80;88.61
20710;BME280;10516;51.518;9.864;2023-02-04T00:37:13;99876.50;;;3.89;88.30
20710;BME280;10516;51.518;9.864;2023-02-04T00:39:39;99877.97;;;3.92;88.29
20710;BME280;10516;51.518;9.864;2023-02-04T00:42:04;99872.78;;;3.98;87.73
20710;BME280;10516;51.518;9.864;2023-02-04T00:44:30;99886.00;;;3.98;88.05
20710;BME280;10516;51.518;9.864;2023-02-04T00:46:56;99873.53;;;3.92;87.41
20710;BME280;10516;51.518;9.864;2023-02-04T00:49:21;99881.88;;;3.81;87.78
20710;BME280;10516;51.518;9.864;2023-02-04T00:51:47;99894.22;;;3.89;88.12
20710;BME280;10516;51.518;9.864;2023-02-04T00:54:13;99900.78;;;4.07;87.93
20710;BME280;10516;51.518;9.864;2023-02-04T00:56:42;99904.69;;;3.97;87.09
20710;BME280;10516;51.518;9.864;2023-02-04T00:59:08;99904.16;;;4.16;87.58
20710;BME280;10516;51.518;9.864;2023-02-04T01:01:34;99896.22;;;4.01;87.56
20710;BME280;10516;51.518;9.864;2023-02-04T01:03:59;99900.47;;;4.02;87.83
20710;BME280;10516;51.518;9.864;2023-02-04T01:06:25;99901.94;;;3.90;87.21
20710;BME280;10516;51.518;9.864;2023-02-04T01:08:50;99904.59;;;4.05;87.56
20710;BME280;10516;51.518;9.864;2023-02-04T01:11:16;99904.50;;;3.98;87.90
20710;BME280;10516;51.518;9.864;2023-02-04T01:13:42;99913.44;;;4.12;87.94
20710;BME280;10516;51.518;9.864;2023-02-04T01:16:07;99922.91;;;4.06;87.74
20710;BME280;10516;51.518;9.864;2023-02-04T01:18:33;99950.22;;;4.13;88.28
20710;BME280;10516;51.518;9.864;2023-02-04T01:20:58;99954.63;;;4.06;87.59
20710;BME280;10516;51.518;9.864;2023-02-04T01:23:23;99976.44;;;4.00;88.01
20710;BME280;10516;51.518;9.864;2023-02-04T01:25:49;99983.88;;;3.82;88.82
20710;BME280;10516;51.518;9.864;2023-02-04T01:28:14;99976.50;;;3.77;88.87
20710;BME280;10516;51.518;9.864;2023-02-04T01:30:39;99985.63;;;3.90;89.76
20710;BME280;10516;51.518;9.864;2023-02-04T01:33:05;99990.72;;;3.91;89.84
20710;BME280;10516;51.518;9.864;2023-02-04T01:35:30;99979.88;;;3.86;89.28
20710;BME280;10516;51.518;9.864;2023-02-04T01:37:56;100009.75;;;3.87;90.90
20710;BME280;10516;51.518;9.864;2023-02-04T01:40:21;99995.53;;;3.88;90.34
20710;BME280;10516;51.518;9.864;2023-02-04T01:42:47;100012.50;;;3.70;91.61
20710;BME280;10516;51.518;9.864;2023-02-04T01:45:12;100011.75;;;3.31;92.84
20710;BME280;10516;51.518;9.864;2023-02-04T01:47:38;100027.50;;;3.17;93.87
20710;BME280;10516;51.518;9.864;2023-02-04T01:50:04;100019.41;;;3.18;93.65
20710;BME280;10516;51.518;9.864;2023-02-04T01:52:36;100039.09;;;2.99;94.49
20710;BME280;10516;51.518;9.864;2023-02-04T01:55:03;100036.28;;;3.40;93.97
20710;BME280;10516;51.518;9.864;2023-02-04T01:57:30;100047.16;;;3.67;92.66
20710;BME280;10516;51.518;9.864;2023-02-04T01:59:57;100018.13;;;3.90;91.10
20710;BME280;10516;51.518;9.864;2023-02-04T02:02:45;100043.72;;;3.90;90.98
20710;BME280;10516;51.518;9.864;2023-02-04T02:05:14;100052.94;;;3.71;90.89
20710;BME280;10516;51.518;9.864;2023-02-04T02:07:40;100051.81;;;3.88;91.17
20710;BME280;10516;51.518;9.864;2023-02-04T02:10:08;100037.97;;;3.86;89.99
20710;BME280;10516;51.518;9.864;2023-02-04T02:12:35;100036.94;;;3.95;90.85
20710;BME280;10516;51.518;9.864;2023-02-04T02:15:01;100067.19;;;4.07;89.67
20710;BME280;10516;51.518;9.864;2023-02-04T02:17:27;100067.38;;;4.06;89.46
20710;BME280;10516;51.518;9.864;2023-02-04T02:19:52;100063.16;;;3.97;90.06
20710;BME280;10516;51.518;9.864;2023-02-04T02:22:25;100071.59;;;4.15;89.77
20710;BME280;10516;51.518;9.864;2023-02-04T02:24:52;100064.63;;;3.99;89.36
20710;BME280;10516;51.518;9.864;2023-02-04T02:27:18;100077.41;;;4.10;89.16
20710;BME280;10516;51.518;9.864;2023-02-04T02:29:43;100080.09;;;3.79;90.09
20710;BME280;10516;51.518;9.864;2023-02-04T02:32:10;100097.94;;;3.77;89.56
20710;BME280;10516;51.518;9.864;2023-02-04T02:34:37;100094.53;;;3.92;89.47
20710;BME280;10516;51.518;9.864;2023-02-04T02:37:04;100097.06;;;4.08;88.61
20710;BME280;10516;51.518;9.864;2023-02-04T02:39:30;100106.84;;;3.76;89.36
20710;BME280;10516;51.518;9.864;2023-02-04T02:41:57;100115.72;;;3.53;89.36
20710;BME280;10516;51.518;9.864;2023-02-04T02:44:24;100115.78;;;3.37;90.62
20710;BME280;10516;51.518;9.864;2023-02-04T02:46:51;100106.78;;;3.85;89.94
20710;BME280;10516;51.518;9.864;2023-02-04T02:49:18;100096.75;;;3.19;89.31
20710;BME280;10516;51.518;9.864;2023-02-04T02:51:44;100114.13;;;2.97;91.21
20710;BME280;10516;51.518;9.864;2023-02-04T02:54:23;100115.84;;;3.21;91.85
20710;BME280;10516;51.518;9.864;2023-02-04T02:56:50;100123.91;;;3.66;90.69
20710;BME280;10516;51.518;9.864;2023-02-04T02:59:16;100135.38;;;3.03;93.08
20710;BME280;10516;51.518;9.864;2023-02-04T03:01:43;100135.38;;;2.95;91.94
20710;BME280;10516;51.518;9.864;2023-02-04T03:04:10;100136.72;;;2.75;91.88
20710;BME280;10516;51.518;9.864;2023-02-04T03:06:36;100153.53;;;2.34;92.89
20710;BME280;10516;51.518;9.864;2023-02-04T03:09:02;100164.88;;;2.67;94.16
20710;BME280;10516;51.518;9.864;2023-02-04T03:11:27;100151.53;;;2.92;92.97
20710;BME280;10516;51.518;9.864;2023-02-04T03:13:58;100158.66;;;2.60;92.12
20710;BME280;10516;51.518;9.864;2023-02-04T03:16:26;100162.06;;;2.84;92.57
20710;BME280;10516;51.518;9.864;2023-02-04T03:18:51;100178.56;;;2.46;92.80
20710;BME280;10516;51.518;9.864;2023-02-04T03:21:17;100181.03;;;2.96;93.47
20710;BME280;10516;51.518;9.864;2023-02-04T03:23:42;100176.75;;;2.79;92.79
20710;BME280;10516;51.518;9.864;2023-02-04T03:26:08;100199.31;;;3.06;93.19
20710;BME280;10516;51.518;9.864;2023-02-04T03:28:38;100205.75;;;2.71;91.67
20710;BME280;10516;51.518;9.864;2023-02-04T03:31:04;100201.78;;;2.91;92.27
20710;BME280;10516;51.518;9.864;2023-02-04T03:33:29;100210.50;;;2.43;91.62
20710;BME280;10516;51.518;9.864;2023-02-04T03:35:56;100212.50;;;2.57;92.53
20710;BME280;10516;51.518;9.864;2023-02-04T03:38:21;100202.13;;;2.48;92.45
20710;BME280;10516;51.518;9.864;2023-02-04T03:40:47;100232.53;;;2.34;92.32
20710;BME280;10516;51.518;9.864;2023-02-04T03:43:12;100234.41;;;2.58;93.20
20710;BME280;10516;51.518;9.864;2023-02-04T03:45:37;100233.72;;;2.48;92.71
20710;BME280;10516;51.518;9.864;2023-02-04T03:48:03;100240.66;;;2.65;91.96
20710;BME280;10516;51.518;9.864;2023-02-04T03:50:28;100239.66;;;2.42;92.05
20710;BME280;10516;51.518;9.864;2023-02-04T03:52:54;100230.44;;;2.38;92.46
20710;BME280;10516;51.518;9.864;2023-02-04T03:55:19;100226.47;;;2.50;92.70
20710;BME280;10516;51.518;9.864;2023-02-04T03:57:45;100241.16;;;2.44;92.04
20710;BME280;10516;51.518;9.864;2023-02-04T04:00:11;100243.59;;;2.46;91.64
20710;BME280;10516;51.518;9.864;2023-02-04T04:02:38;100254.91;;;2.22;92.05
20710;BME280;10516;51.518;9.864;2023-02-04T04:05:04;100272.34;;;2.15;92.71
20710;BME280;10516;51.518;9.864;2023-02-04T04:07:30;100268.84;;;1.65;93.76
20710;BME280;10516;51.518;9.864;2023-02-04T04:09:55;100283.84;;;1.21;94.60
20710;BME280;10516;51.518;9.864;2023-02-04T04:12:20;100304.44;;;1.08;95.30
20710;BME280;10516;51.518;9.864;2023-02-04T04:14:46;100295.66;;;0.99;95.93
20710;BME280;10516;51.518;9.864;2023-02-04T04:17:11;100304.59;;;1.24;95.03
20710;BME280;10516;51.518;9.864;2023-02-04T04:19:36;100328.16;;;1.16;95.24
20710;BME280;10516;51.518;9.864;2023-02-04T04:22:02;100328.94;;;1.51;96.16
20710;BME280;10516;51.518;9.864;2023-02-04T04:24:27;100281.91;;;1.82;95.37
20710;BME280;10516;51.518;9.864;2023-02-04T04:26:53;100335.91;;;1.86;93.57
20710;BME280;10516;51.518;9.864;2023-02-04T04:29:18;100331.63;;;1.60;93.29
20710;BME280;10516;51.518;9.864;2023-02-04T04:31:44;100337.63;;;1.70;94.95
20710;BME280;10516;51.518;9.864;2023-02-04T04:34:13;100331.84;;;1.05;94.14
20710;BME280;10516;51.518;9.864;2023-02-04T04:36:39;100336.44;;;1.03;94.33
20710;BME280;10516;51.518;9.864;2023-02-04T04:39:04;100353.50;;;0.99;95.79
20710;BME280;10516;51.518;9.864;2023-02-04T04:41:30;100346.38;;;0.74;96.12
20710;BME280;10516;51.518;9.864;2023-02-04T04:43:55;100354.50;;;0.98;96.02
20710;BME280;10516;51.518;9.864;2023-02-04T04:46:21;100371.59;;;0.85;95.82
20710;BME280;10516;51.518;9.864;2023-02-04T04:48:47;100380.00;;;1.23;96.86
20710;BME280;10516;51.518;9.864;2023-02-04T04:51:12;100363.34;;;0.97;94.38
20710;BME280;10516;51.518;9.864;2023-02-04T04:53:37;100374.69;;;1.33;94.92
20710;BME280;10516;51.518;9.864;2023-02-04T04:56:03;100382.94;;;1.03;95.08
20710;BME280;10516;51.518;9.864;2023-02-04T04:58:28;100387.38;;;0.85;95.08
20710;BME280;10516;51.518;9.864;2023-02-04T05:00:54;100405.78;;;1.81;95.04
20710;BME280;10516;51.518;9.864;2023-02-04T05:03:19;100394.47;;;1.88;93.74
20710;BME280;10516;51.518;9.864;2023-02-04T05:05:44;100411.78;;;1.12;93.78
20710;BME280;10516;51.518;9.864;2023-02-04T05:08:10;100400.53;;;1.02;93.87
20710;BME280;10516;51.518;9.864;2023-02-04T05:10:40;100409.66;;;0.81;94.73
20710;BME280;10516;51.518;9.864;2023-02-04T05:13:06;100414.34;;;1.57;95.52
20710;BME280;10516;51.518;9.864;2023-02-04T05:15:31;100413.88;;;2.13;94.20
20710;BME280;10516;51.518;9.864;2023-02-04T05:17:57;100401.59;;;1.96;92.30
20710;BME280;10516;51.518;9.864;2023-02-04T05:20:23;100411.69;;;2.00;93.07
20710;BME280;10516;51.518;9.864;2023-02-04T05:22:48;100425.59;;;2.86;91.42
20710;BME280;10516;51.518;9.864;2023-02-04T05:25:14;100410.84;;;2.75;90.75
20710;BME280;10516;51.518;9.864;2023-02-04T05:27:41;100411.75;;;2.84;89.63
20710;BME280;10516;51.518;9.864;2023-02-04T05:30:10;100417.69;;;1.93;90.18
20710;BME280;10516;51.518;9.864;2023-02-04T05:32:36;100424.72;;;2.10;91.28
20710;BME280;10516;51.518;9.864;2023-02-04T05:35:02;100427.19;;;2.79;89.91
20710;BME280;10516;51.518;9.864;2023-02-04T05:37:27;100437.34;;;1.98;89.59
20710;BME280;10516;51.518;9.864;2023-02-04T05:39:52;100433.69;;;2.51;91.92
20710;BME280;10516;51.518;9.864;2023-02-04T05:42:18;100436.19;;;3.10;90.31
20710;BME280;10516;51.518;9.864;2023-02-04T05:44:43;100455.19;;;3.54;88.63
20710;BME280;10516;51.518;9.864;2023-02-04T05:47:08;100460.00;;;3.66;87.31
20710;BME280;10516;51.518;9.864;2023-02-04T05:49:34;100461.31;;;3.54;87.51
20710;BME280;10516;51.518;9.864;2023-02-04T05:51:59;100469.75;;;3.58;87.84
20710;BME280;10516;51.518;9.864;2023-02-04T05:54:25;100465.28;;;3.50;86.71
20710;BME280;10516;51.518;9.864;2023-02-04T05:56:50;100469.41;;;3.53;86.89
20710;BME280;10516;51.518;9.864;2023-02-04T05:59:16;100472.97;;;3.20;87.75
20710;BME280;10516;51.518;9.864;2023-02-04T06:01:42;100474.78;;;2.36;87.64
20710;BME280;10516;51.518;9.864;2023-02-04T06:04:08;100472.97;;;2.10;89.31
20710;BME280;10516;51.518;9.864;2023-02-04T06:06:34;100471.50;;;1.02;91.34
20710;BME280;10516;51.518;9.864;2023-02-04T06:08:59;100466.72;;;1.15;92.10
20710;BME280;10516;51.518;9.864;2023-02-04T06:11:24;100464.16;;;1.41;91.25
20710;BME280;10516;51.518;9.864;2023-02-04T06:13:50;100459.19;;;2.84;91.94
20710;BME280;10516;51.518;9.864;2023-02-04T06:16:15;100475.31;;;2.81;89.41
20710;BME280;10516;51.518;9.864;2023-02-04T06:18:40;100481.22;;;3.25;88.37
20710;BME280;10516;51.518;9.864;2023-02-04T06:21:06;100482.56;;;3.37;87.29
20710;BME280;10516;51.518;9.864;2023-02-04T06:23:31;100495.63;;;3.46;86.33
20710;BME280;10516;51.518;9.864;2023-02-04T06:26:01;100498.25;;;3.46;86.50
20710;BME280;10516;51.518;9.864;2023-02-04T06:28:27;100491.19;;;3.55;86.24
20710;BME280;10516;51.518;9.864;2023-02-04T06:30:52;100492.25;;;3.20;86.01
20710;BME280;10516;51.518;9.864;2023-02-04T06:33:18;100488.69;;;3.45;85.92
20710;BME280;10516;51.518;9.864;2023-02-04T06:35:43;100506.53;;;3.59;85.38
20710;BME280;10516;51.518;9.864;2023-02-04T06:38:08;100519.41;;;3.62;85.28
20710;BME280;10516;51.518;9.864;2023-02-04T06:40:34;100503.22;;;3.57;85.23
20710;BME280;10516;51.518;9.864;2023-02-04T06:42:59;100527.00;;;3.57;84.72
20710;BME280;10516;51.518;9.864;2023-02-04T06:45:24;100507.13;;;2.54;85.29
20710;BME280;10516;51.518;9.864;2023-02-04T06:47:50;100516.69;;;2.88;87.17
20710;BME280;10516;51.518;9.864;2023-02-04T06:50:15;100531.72;;;3.38;85.94
20710;BME280;10516;51.518;9.864;2023-02-04T06:52:47;100520.41;;;3.03;86.43
20710;BME280;10516;51.518;9.864;2023-02-04T06:55:13;100538.50;;;2.98;85.65
20710;BME280;10516;51.518;9.864;2023-02-04T06:57:48;100533.41;;;1.77;87.47
20710;BME280;10516;51.518;9.864;2023-02-04T07:00:14;100543.28;;;1.30;88.49
20710;BME280;10516;51.518;9.864;2023-02-04T07:02:39;100534.34;;;0.96;89.53
20710;BME280;10516;51.518;9.864;2023-02-04T07:05:07;100557.47;;;1.19;90.38
20710;BME280;10516;51.518;9.864;2023-02-04T07:07:32;100564.69;;;1.80;90.47
20710;BME280;10516;51.518;9.864;2023-02-04T07:09:58;100546.25;;;2.15;90.48
20710;BME280;10516;51.518;9.864;2023-02-04T07:12:23;100547.34;;;2.81;88.04
20710;BME280;10516;51.518;9.864;2023-02-04T07:14:49;100551.69;;;2.90;86.92
20710;BME280;10516;51.518;9.864;2023-02-04T07:17:14;100554.84;;;3.02;86.18
20710;BME280;10516;51.518;9.864;2023-02-04T07:19:39;100570.00;;;3.00;85.87
20710;BME280;10516;51.518;9.864;2023-02-04T07:22:05;100574.97;;;3.03;85.87
20710;BME280;10516;51.518;9.864;2023-02-04T07:24:30;100583.06;;;3.10;85.37
20710;BME280;10516;51.518;9.864;2023-02-04T07:26:56;100578.91;;;2.99;85.46
20710;BME280;10516;51.518;9.864;2023-02-04T07:29:21;100584.88;;;3.09;85.25
20710;BME280;10516;51.518;9.864;2023-02-04T07:31:46;100574.09;;;2.94;85.40
20710;BME280;10516;51.518;9.864;2023-02-04T07:34:13;100588.03;;;3.13;85.46
20710;BME280;10516;51.518;9.864;2023-02-04T07:36:38;100602.72;;;3.15;85.40
20710;BME280;10516;51.518;9.864;2023-02-04T07:39:04;100601.56;;;3.18;85.08
20710;BME280;10516;51.518;9.864;2023-02-04T07:41:30;100598.56;;;3.13;84.60
20710;BME280;10516;51.518;9.864;2023-02-04T07:43:55;100599.69;;;3.02;85.00
20710;BME280;10516;51.518;9.864;2023-02-04T07:46:20;100612.75;;;3.12;85.07
20710;BME280;10516;51.518;9.864;2023-02-04T07:48:46;100624.34;;;3.19;85.26
20710;BME280;10516;51.518;9.864;2023-02-04T07:51:11;100619.53;;;3.14;85.24
20710;BME280;10516;51.518;9.864;2023-02-04T07:53:36;100611.81;;;2.95;85.61
20710;BME280;10516;51.518;9.864;2023-02-04T07:56:02;100619.09;;;3.27;84.72
20710;BME280;10516;51.518;9.864;2023-02-04T07:58:27;100620.81;;;2.15;85.82
20710;BME280;10516;51.518;9.864;2023-02-04T08:00:53;100623.06;;;2.28;89.16
20710;BME280;10516;51.518;9.864;2023-02-04T08:03:18;100615.63;;;2.06;87.74
20710;BME280;10516;51.518;9.864;2023-02-04T08:05:43;100613.31;;;1.58;88.51
20710;BME280;10516;51.518;9.864;2023-02-04T08:08:09;100613.34;;;2.28;90.30
20710;BME280;10516;51.518;9.864;2023-02-04T08:10:34;100621.03;;;2.40;88.37
20710;BME280;10516;51.518;9.864;2023-02-04T08:12:59;100640.56;;;2.55;88.45
20710;BME280;10516;51.518;9.864;2023-02-04T08:15:25;100658.44;;;1.36;89.64
20710;BME280;10516;51.518;9.864;2023-02-04T08:17:50;100658.84;;;1.31;91.11
20710;BME280;10516;51.518;9.864;2023-02-04T08:20:15;100659.63;;;1.14;92.02
20710;BME280;10516;51.518;9.864;2023-02-04T08:22:42;100667.22;;;0.71;93.64
20710;BME280;10516;51.518;9.864;2023-02-04T08:25:08;100650.06;;;0.67;94.44
20710;BME280;10516;51.518;9.864;2023-02-04T08:27:36;100643.72;;;0.60;94.64
20710;BME280;10516;51.518;9.864;2023-02-04T08:30:01;100646.19;;;0.61;94.15
20710;BME280;10516;51.518;9.864;2023-02-04T08:32:27;100651.66;;;1.33;95.15
20710;BME280;10516;51.518;9.864;2023-02-04T08:34:53;100647.38;;;1.60;93.20
20710;BME280;10516;51.518;9.864;2023-02-04T08:37:18;100674.97;;;1.19;91.79
20710;BME280;10516;51.518;9.864;2023-02-04T08:39:44;100676.91;;;1.26;92.88
20710;BME280;10516;51.518;9.864;2023-02-04T08:42:12;100677.78;;;1.44;92.35
20710;BME280;10516;51.518;9.864;2023-02-04T08:44:37;100665.41;;;0.62;92.46
20710;BME280;10516;51.518;9.864;2023-02-04T08:47:03;100675.72;;;1.11;93.55
20710;BME280;10516;51.518;9.864;2023-02-04T08:49:28;100675.94;;;0.71;92.45
20710;BME280;10516;51.518;9.864;2023-02-04T08:51:53;100668.47;;;0.57;93.38
20710;BME280;10516;51.518;9.864;2023-02-04T08:54:19;100681.44;;;0.78;93.64
20710;BME280;10516;51.518;9.864;2023-02-04T08:56:44;100675.63;;;1.30;93.74
20710;BME280;10516;51.518;9.864;2023-02-04T08:59:10;100678.25;;;1.30;92.87
20710;BME280;10516;51.518;9.864;2023-02-04T09:01:36;100679.44;;;1.09;93.45
20710;BME280;10516;51.518;9.864;2023-02-04T09:04:01;100688.34;;;0.79;92.17
20710;BME280;10516;51.518;9.864;2023-02-04T09:06:27;100684.09;;;1.24;94.48
20710;BME280;10516;51.518;9.864;2023-02-04T09:08:52;100685.75;;;1.25;92.46
20710;BME280;10516;51.518;9.864;2023-02-04T09:11:17;100684.59;;;0.91;92.54
20710;BME280;10516;51.518;9.864;2023-02-04T09:13:43;100691.63;;;1.74;92.45
20710;BME280;10516;51.518;9.864;2023-02-04T09:16:08;100673.03;;;2.20;92.01
20710;BME280;10516;51.518;9.864;2023-02-04T09:18:35;100697.16;;;1.98;89.57
20710;BME280;10516;51.518;9.864;2023-02-04T09:21:00;100703.13;;;1.73;90.98
20710;BME280;10516;51.518;9.864;2023-02-04T09:23:26;100687.91;;;0.93;91.33
20710;BME280;10516;51.518;9.864;2023-02-04T09:25:51;100708.88;;;1.22;92.25
20710;BME280;10516;51.518;9.864;2023-02-04T09:28:16;100700.81;;;1.33;90.79
20710;BME280;10516;51.518;9.864;2023-02-04T09:30:43;100706.19;;;1.41;91.55
20710;BME280;10516;51.518;9.864;2023-02-04T09:33:10;100714.16;;;1.03;89.26
20710;BME280;10516;51.518;9.864;2023-02-04T09:35:36;100716.63;;;1.14;90.18
20710;BME280;10516;51.518;9.864;2023-02-04T09:38:03;100702.31;;;0.89;90.46
20710;BME280;10516;51.518;9.864;2023-02-04T09:40:31;100716.44;;;1.34;91.21
20710;BME280;10516;51.518;9.864;2023-02-04T09:42:59;100719.22;;;1.70;91.09
20710;BME280;10516;51.518;9.864;2023-02-04T09:45:27;100727.78;;;1.72;90.58
20710;BME280;10516;51.518;9.864;2023-02-04T09:47:56;100734.47;;;2.20;90.88
20710;BME280;10516;51.518;9.864;2023-02-04T09:50:24;100723.59;;;2.06;91.63
20710;BME280;10516;51.518;9.864;2023-02-04T09:52:53;100717.44;;;2.68;89.58
20710;BME280;10516;51.518;9.864;2023-02-04T09:55:21;100729.78;;;2.67;89.92
20710;BME280;10516;51.518;9.864;2023-02-04T09:57:49;100742.03;;;3.12;88.90
20710;BME280;10516;51.518;9.864;2023-02-04T10:00:17;100729.50;;;2.70;86.68
20710;BME280;10516;51.518;9.864;2023-02-04T10:02:43;100740.38;;;2.93;86.98
20710;BME280;10516;51.518;9.864;2023-02-04T10:05:18;100731.13;;;2.71;85.15
20710;BME280;10516;51.518;9.864;2023-02-04T10:07:44;100737.88;;;3.35;87.46
20710;BME280;10516;51.518;9.864;2023-02-04T10:10:19;100748.75;;;3.32;87.12
20710;BME280;10516;51.518;9.864;2023-02-04T10:12:46;100753.56;;;3.62;86.93
20710;BME280;10516;51.518;9.864;2023-02-04T10:15:14;100760.53;;;3.71;86.50
20710;BME280;10516;51.518;9.864;2023-02-04T10:17:40;100754.78;;;3.75;86.14
20710;BME280;10516;51.518;9.864;2023-02-04T10:20:20;100762.13;;;3.64;85.97
20710;BME280;10516;51.518;9.864;2023-02-04T10:22:46;100758.44;;;3.49;86.24
20710;BME280;10516;51.518;9.864;2023-02-04T10:25:17;100763.47;;;3.68;86.11
20710;BME280;10516;51.518;9.864;2023-02-04T10:27:54;100748.75;;;3.32;83.66
20710;BME280;10516;51.518;9.864;2023-02-04T10:30:38;100762.44;;;3.61;85.35
20710;BME280;10516;51.518;9.864;2023-02-04T10:33:21;100752.28;;;3.74;82.10
20710;BME280;10516;51.518;9.864;2023-02-04T10:35:53;100756.16;;;3.96;82.53
20710;BME280;10516;51.518;9.864;2023-02-04T10:38:19;100770.53;;;3.93;82.68
20710;BME280;10516;51.518;9.864;2023-02-04T10:40:45;100768.50;;;3.87;82.64
20710;BME280;10516;51.518;9.864;2023-02-04T10:43:21;100783.28;;;3.72;81.60
20710;BME280;10516;51.518;9.864;2023-02-04T10:45:54;100779.34;;;3.76;81.18
20710;BME280;10516;51.518;9.864;2023-02-04T10:48:20;100773.75;;;3.71;80.47
20710;BME280;10516;51.518;9.864;2023-02-04T10:50:46;100787.44;;;3.74;79.90
20710;BME280;10516;51.518;9.864;2023-02-04T10:53:15;100784.59;;;3.68;79.29
20710;BME280;10516;51.518;9.864;2023-02-04T10:56:00;100793.41;;;3.85;80.66
20710;BME280;10516;51.518;9.864;2023-02-04T10:58:28;100807.50;;;3.59;79.03
20710;BME280;10516;51.518;9.864;2023-02-04T11:00:54;100806.59;;;3.25;78.25
20710;BME280;10516;51.518;9.864;2023-02-04T11:03:24;100801.59;;;3.40;78.75
20710;BME280;10516;51.518;9.864;2023-02-04T11:05:51;100799.34;;;3.27;77.72
20710;BME280;10516;51.518;9.864;2023-02-04T11:08:17;100809.91;;;3.53;78.50
20710;BME280;10516;51.518;9.864;2023-02-04T11:10:44;100806.44;;;3.78;79.95
20710;BME280;10516;51.518;9.864;2023-02-04T11:13:21;100802.91;;;3.69;79.16
20710;BME280;10516;51.518;9.864;2023-02-04T11:15:49;100811.88;;;3.76;78.86
20710;BME280;10516;51.518;9.864;2023-02-04T11:20:44;100806.44;;;3.78;79.11
20710;BME280;10516;51.518;9.864;2023-02-04T11:23:31;100803.47;;;3.81;78.72
20710;BME280;10516;51.518;9.864;2023-02-04T11:26:15;100815.13;;;3.96;79.51
20710;BME280;10516;51.518;9.864;2023-02-04T11:29:06;100819.09;;;4.00;79.20
20710;BME280;10516;51.518;9.864;2023-02-04T11:39:43;100823.47;;;3.84;78.77
20710;BME280;10516;51.518;9.864;2023-02-04T11:42:39;100820.78;;;3.50;78.10
20710;BME280;10516;51.518;9.864;2023-02-04T11:45:25;100809.16;;;3.17;75.46
20710;BME280;10516;51.518;9.864;2023-02-04T11:47:52;100826.53;;;3.71;78.72
20710;BME280;10516;51.518;9.864;2023-02-04T11:50:22;100813.28;;;3.89;77.81
20710;BME280;10516;51.518;9.864;2023-02-04T11:52:49;100813.63;;;3.94;77.91
20710;BME280;10516;51.518;9.864;2023-02-04T11:55:15;100796.09;;;3.59;75.79
20710;BME280;10516;51.518;9.864;2023-02-04T11:57:42;100809.09;;;4.12;77.94
20710;BME280;10516;51.518;9.864;2023-02-04T12:00:16;100799.19;;;3.80;76.34
20710;BME280;10516;51.518;9.864;2023-02-04T12:02:54;100814.91;;;4.23;75.78
20710;BME280;10516;51.518;9.864;2023-02-04T12:05:41;100809.94;;;4.20;74.85
20710;BME280;10516;51.518;9.864;2023-02-04T12:11:04;100817.88;;;4.28;75.48
20710;BME280;10516;51.518;9.864;2023-02-04T12:13:32;100820.50;;;4.20;75.33
20710;BME280;10516;51.518;9.864;2023-02-04T12:16:02;100816.28;;;4.43;75.63
20710;BME280;10516;51.518;9.864;2023-02-04T12:18:29;100818.91;;;4.35;75.35
20710;BME280;10516;51.518;9.864;2023-02-04T12:20:55;100816.28;;;4.35;75.33
20710;BME280;10516;51.518;9.864;2023-02-04T12:23:22;100819.88;;;4.26;75.43
20710;BME280;10516;51.518;9.864;2023-02-04T12:25:48;100808.44;;;4.18;73.35
20710;BME280;10516;51.518;9.864;2023-02-04T12:28:14;100795.94;;;3.86;72.54
20710;BME280;10516;51.518;9.864;2023-02-04T12:30:39;100809.16;;;3.94;73.77
20710;BME280;10516;51.518;9.864;2023-02-04T12:33:05;100810.22;;;4.59;74.38
20710;BME280;10516;51.518;9.864;2023-02-04T12:35:31;100818.16;;;4.59;72.45
20710;BME280;10516;51.518;9.864;2023-02-04T12:37:57;100826.00;;;4.35;70.75
20710;BME280;10516;51.518;9.864;2023-02-04T12:40:22;100834.78;;;4.43;72.10
20710;BME280;10516;51.518;9.864;2023-02-04T12:42:47;100834.22;;;4.24;70.78
20710;BME280;10516;51.518;9.864;2023-02-04T12:45:15;100838.50;;;4.59;72.75
20710;BME280;10516;51.518;9.864;2023-02-04T12:47:41;100836.53;;;4.61;72.33
20710;BME280;10516;51.518;9.864;2023-02-04T12:50:08;100830.59;;;4.67;72.29
20710;BME280;10516;51.518;9.864;2023-02-04T12:52:33;100826.28;;;4.24;70.31
20710;BME280;10516;51.518;9.864;2023-02-04T12:54:59;100835.38;;;4.71;71.59
20710;BME280;10516;51.518;9.864;2023-02-04T12:57:25;100830.94;;;4.72;71.21
20710;BME280;10516;51.518;9.864;2023-02-04T12:59:51;100832.41;;;4.74;71.31
20710;BME280;10516;51.518;9.864;2023-02-04T13:02:16;100826.78;;;4.69;70.80
20710;BME280;10516;51.518;9.864;2023-02-04T13:04:42;100841.75;;;4.44;69.67
20710;BME280;10516;51.518;9.864;2023-02-04T13:07:08;100828.91;;;4.57;72.84
20710;BME280;10516;51.518;9.864;2023-02-04T13:09:35;100830.66;;;5.23;73.04
20710;BME280;10516;51.518;9.864;2023-02-04T13:12:00;100826.63;;;3.87;67.24
20710;BME280;10516;51.518;9.864;2023-02-04T13:14:26;100821.69;;;3.41;67.38